createdAt,value
2017-11-01T00:00:37.635Z,0
2017-11-01T00:02:39.029Z,0
2017-11-01T00:04:40.436Z,0
2017-11-01T00:07:23.171Z,0
2017-11-01T00:09:24.579Z,0
2017-11-01T00:11:25.993Z,0
2017-11-01T00:13:27.435Z,0
2017-11-01T00:15:29.467Z,0
2017-11-01T00:17:30.815Z,0
2017-11-01T00:19:32.217Z,0
2017-11-01T00:21:33.636Z,0
2017-11-01T00:23:35.045Z,0
2017-11-01T00:25:36.510Z,0
2017-11-01T00:27:37.929Z,0
2017-11-01T00:29:39.351Z,0
2017-11-01T00:31:40.750Z,0
2017-11-01T00:33:42.240Z,0
2017-11-01T00:35:43.647Z,0
2017-11-01T00:37:45.198Z,0
2017-11-01T00:40:26.594Z,0
2017-11-01T00:42:28.006Z,0
2017-11-01T00:44:29.417Z,0
2017-11-01T00:46:30.823Z,0
2017-11-01T00:48:32.230Z,0
2017-11-01T00:50:33.659Z,0
2017-11-01T00:52:35.067Z,0
2017-11-01T00:55:17.467Z,0
2017-11-01T00:57:18.881Z,0
2017-11-01T00:59:20.306Z,0
2017-11-01T01:01:21.700Z,0
2017-11-01T01:03:23.115Z,0
2017-11-01T01:05:25.196Z,0
2017-11-01T01:07:26.646Z,0
2017-11-01T01:09:28.034Z,0
2017-11-01T01:11:29.485Z,0
2017-11-01T01:13:30.906Z,0
2017-11-01T01:15:32.427Z,0
2017-11-01T01:17:33.963Z,0
2017-11-01T01:19:35.440Z,0
2017-11-01T01:21:37.016Z,0
2017-11-01T01:23:38.502Z,0
2017-11-01T01:26:20.897Z,0
2017-11-01T01:28:22.305Z,0
2017-11-01T01:30:23.750Z,0
2017-11-01T01:32:25.164Z,0
2017-11-01T01:34:26.582Z,0
2017-11-01T01:36:27.998Z,0
2017-11-01T01:38:29.484Z,0
2017-11-01T01:40:30.944Z,0
2017-11-01T01:43:13.338Z,0
2017-11-01T01:45:14.758Z,0
2017-11-01T01:47:16.160Z,0
2017-11-01T01:49:17.574Z,0
2017-11-01T01:51:18.984Z,0
2017-11-01T01:53:20.398Z,0
2017-11-01T01:55:21.802Z,0
2017-11-01T01:57:23.211Z,0
2017-11-01T01:59:24.627Z,0
2017-11-01T02:01:26.039Z,0
2017-11-01T02:03:27.442Z,0
2017-11-01T02:05:28.874Z,0
2017-11-01T02:07:30.267Z,0
2017-11-01T02:09:31.677Z,0
2017-11-01T02:11:33.084Z,0
2017-11-01T02:14:15.472Z,0
2017-11-01T02:16:16.879Z,0
2017-11-01T02:18:18.293Z,0
2017-11-01T02:20:19.703Z,0
2017-11-01T02:22:21.272Z,0
2017-11-01T02:24:22.791Z,0
2017-11-01T02:26:24.284Z,0
2017-11-01T02:28:25.841Z,0
2017-11-01T02:30:27.355Z,0
2017-11-01T02:32:28.825Z,0
2017-11-01T02:34:30.344Z,0
2017-11-01T02:36:31.818Z,0
2017-11-01T02:38:33.296Z,0
2017-11-01T02:40:34.793Z,0
2017-11-01T02:42:36.292Z,0
2017-11-01T02:44:37.750Z,0
2017-11-01T02:47:20.173Z,0
2017-11-01T02:49:21.592Z,0
2017-11-01T02:51:22.994Z,0
2017-11-01T02:53:24.405Z,0
2017-11-01T02:55:25.844Z,0
2017-11-01T02:57:27.294Z,0
2017-11-01T02:59:28.693Z,0
2017-11-01T03:01:30.102Z,0
2017-11-01T03:03:31.513Z,0
2017-11-01T03:05:32.925Z,0
2017-11-01T03:07:34.340Z,0
2017-11-01T03:09:35.742Z,0
2017-11-01T03:11:37.159Z,0
2017-11-01T03:13:38.622Z,0
2017-11-01T03:15:40.032Z,0
2017-11-01T03:18:22.446Z,0
2017-11-01T03:20:23.878Z,0
2017-11-01T03:22:25.601Z,0
2017-11-01T03:24:27.098Z,0
2017-11-01T03:26:28.523Z,0
2017-11-01T03:28:29.932Z,0
2017-11-01T03:30:31.379Z,0
2017-11-01T03:32:32.835Z,0
2017-11-01T03:35:15.268Z,0
2017-11-01T03:37:16.690Z,0
2017-11-01T03:39:18.098Z,0
2017-11-01T03:41:19.504Z,0
2017-11-01T03:43:20.917Z,0
2017-11-01T03:45:22.328Z,0
2017-11-01T03:47:23.751Z,0
2017-11-01T03:49:25.158Z,0
2017-11-01T03:51:26.573Z,0
2017-11-01T03:53:27.988Z,0
2017-11-01T03:55:29.500Z,0
2017-11-01T03:57:31.034Z,0
2017-11-01T03:59:32.467Z,0
2017-11-01T04:01:33.878Z,0
2017-11-01T04:03:35.337Z,0
2017-11-01T04:06:17.739Z,0
2017-11-01T04:08:19.167Z,0
2017-11-01T04:10:20.597Z,0
2017-11-01T04:12:22.021Z,0
2017-11-01T04:14:23.700Z,0
2017-11-01T04:16:25.108Z,0
2017-11-01T04:18:26.549Z,0
2017-11-01T04:20:27.965Z,0
2017-11-01T04:22:29.445Z,0
2017-11-01T04:24:31.096Z,0
2017-11-01T04:26:32.678Z,0
2017-11-01T04:28:34.180Z,0
2017-11-01T04:30:35.685Z,0
2017-11-01T04:32:37.201Z,0
2017-11-01T04:34:38.658Z,0
2017-11-01T04:36:40.173Z,0
2017-11-01T04:38:41.760Z,0
2017-11-01T04:40:43.507Z,0
2017-11-01T04:42:45.062Z,0
2017-11-01T04:44:46.571Z,0
2017-11-01T04:46:48.044Z,0
2017-11-01T04:48:49.567Z,0
2017-11-01T04:50:51.117Z,0
2017-11-01T04:53:33.865Z,0
2017-11-01T04:55:35.283Z,0
2017-11-01T04:57:36.763Z,0
2017-11-01T04:59:38.155Z,0
2017-11-01T05:01:39.575Z,0
2017-11-01T05:03:40.995Z,0
2017-11-01T05:05:42.440Z,0
2017-11-01T05:08:24.879Z,0
2017-11-01T05:10:26.277Z,0
2017-11-01T05:12:27.689Z,0
2017-11-01T05:14:29.101Z,0
2017-11-01T05:16:30.513Z,0
2017-11-01T05:18:31.916Z,0
2017-11-01T05:20:33.345Z,0
2017-11-01T05:22:34.753Z,0
2017-11-01T05:25:17.170Z,0
2017-11-01T05:27:18.577Z,0
2017-11-01T05:29:20.002Z,0
2017-11-01T05:31:21.516Z,0
2017-11-01T05:33:22.928Z,0
2017-11-01T05:35:24.335Z,0
2017-11-01T05:37:25.752Z,0
2017-11-01T05:39:27.165Z,0
2017-11-01T05:41:28.575Z,0
2017-11-01T05:43:29.980Z,0
2017-11-01T05:45:31.424Z,0
2017-11-01T05:47:32.895Z,0
2017-11-01T05:49:34.381Z,0
2017-11-01T05:51:35.860Z,0
2017-11-01T05:53:37.372Z,0
2017-11-01T05:56:20.043Z,0
2017-11-01T05:58:21.424Z,0
2017-11-01T06:00:22.836Z,0
2017-11-01T06:02:24.251Z,0
2017-11-01T06:04:25.926Z,0
2017-11-01T06:06:27.337Z,0
2017-11-01T06:08:28.790Z,0
2017-11-01T06:10:30.275Z,0
2017-11-01T06:13:12.660Z,0
2017-11-01T06:15:14.070Z,4
2017-11-01T06:17:15.489Z,0
2017-11-01T06:19:16.904Z,4
2017-11-01T06:21:18.309Z,4
2017-11-01T06:23:19.719Z,0
2017-11-01T06:25:21.133Z,4
2017-11-01T06:27:22.552Z,8
2017-11-01T06:29:23.998Z,4
2017-11-01T06:31:25.543Z,8
2017-11-01T06:33:26.950Z,8
2017-11-01T06:35:28.393Z,8
2017-11-01T06:37:29.853Z,8
2017-11-01T06:39:31.363Z,12
2017-11-01T06:41:32.869Z,12
2017-11-01T06:44:15.257Z,12
2017-11-01T06:46:16.680Z,20
2017-11-01T06:48:18.380Z,16
2017-11-01T06:50:19.758Z,20
2017-11-01T06:52:21.266Z,20
2017-11-01T06:54:22.912Z,24
2017-11-01T06:56:24.372Z,24
2017-11-01T06:58:25.922Z,28
2017-11-01T07:01:08.682Z,36
2017-11-01T07:03:10.106Z,32
2017-11-01T07:05:11.529Z,36
2017-11-01T07:07:12.942Z,36
2017-11-01T07:09:14.350Z,40
2017-11-01T07:11:15.767Z,44
2017-11-01T07:13:17.296Z,52
2017-11-01T07:15:18.718Z,48
2017-11-01T07:17:20.158Z,52
2017-11-01T07:19:21.584Z,56
2017-11-01T07:21:23.108Z,64
2017-11-01T07:23:24.583Z,76
2017-11-01T07:25:26.076Z,68
2017-11-01T07:27:27.727Z,64
2017-11-01T07:29:29.220Z,76
2017-11-01T07:32:11.654Z,80
2017-11-01T07:34:13.046Z,84
2017-11-01T07:36:14.457Z,76
2017-11-01T07:38:15.863Z,72
2017-11-01T07:40:17.290Z,76
2017-11-01T07:42:18.695Z,84
2017-11-01T07:44:20.113Z,88
2017-11-01T07:46:21.529Z,104
2017-11-01T07:48:22.984Z,116
2017-11-01T07:50:24.713Z,116
2017-11-01T07:52:26.123Z,108
2017-11-01T07:54:27.550Z,100
2017-11-01T07:56:29.012Z,92
2017-11-01T07:58:30.565Z,88
2017-11-01T08:00:32.073Z,84
2017-11-01T08:02:33.488Z,76
2017-11-01T08:04:34.903Z,68
2017-11-01T08:06:36.375Z,76
2017-11-01T08:08:37.911Z,92
2017-11-01T08:10:39.394Z,84
2017-11-01T08:12:40.962Z,108
2017-11-01T08:14:42.473Z,148
2017-11-01T08:16:44.029Z,180
2017-11-01T08:19:26.399Z,180
2017-11-01T08:21:27.809Z,200
2017-11-01T08:23:29.220Z,212
2017-11-01T08:25:30.639Z,184
2017-11-01T08:27:32.043Z,200
2017-11-01T08:29:33.464Z,236
2017-11-01T08:31:34.875Z,212
2017-11-01T08:33:36.290Z,256
2017-11-01T08:35:37.716Z,240
2017-11-01T08:37:39.121Z,228
2017-11-01T08:39:40.536Z,248
2017-11-01T08:41:41.954Z,300
2017-11-01T08:43:43.383Z,360
2017-11-01T08:45:44.805Z,280
2017-11-01T08:47:46.231Z,220
2017-11-01T08:49:47.649Z,228
2017-11-01T08:51:49.074Z,216
2017-11-01T08:53:51.109Z,168
2017-11-01T08:55:52.515Z,128
2017-11-01T08:57:53.934Z,160
2017-11-01T08:59:55.349Z,176
2017-11-01T09:01:56.771Z,268
2017-11-01T09:03:58.231Z,220
2017-11-01T09:05:59.678Z,232
2017-11-01T09:08:01.106Z,232
2017-11-01T09:10:02.545Z,292
2017-11-01T09:12:03.984Z,328
2017-11-01T09:14:05.470Z,220
2017-11-01T09:16:06.991Z,232
2017-11-01T09:18:08.534Z,312
2017-11-01T09:20:10.040Z,344
2017-11-01T09:22:52.435Z,272
2017-11-01T09:24:53.847Z,244
2017-11-01T09:26:55.261Z,260
2017-11-01T09:28:56.676Z,364
2017-11-01T09:30:58.090Z,340
2017-11-01T09:32:59.501Z,284
2017-11-01T09:35:00.914Z,256
2017-11-01T09:37:02.332Z,292
2017-11-01T09:39:03.744Z,280
2017-11-01T09:41:05.158Z,296
2017-11-01T09:43:06.576Z,344
2017-11-01T09:45:07.997Z,396
2017-11-01T09:47:09.413Z,452
2017-11-01T09:49:10.831Z,440
2017-11-01T09:51:12.246Z,396
2017-11-01T09:53:13.664Z,412
2017-11-01T09:55:15.075Z,356
2017-11-01T09:57:16.490Z,292
2017-11-01T09:59:17.927Z,224
2017-11-01T10:01:19.321Z,272
2017-11-01T10:03:20.735Z,284
2017-11-01T10:05:22.151Z,256
2017-11-01T10:07:23.688Z,244
2017-11-01T10:10:05.146Z,348
2017-11-01T10:12:06.557Z,364
2017-11-01T10:14:07.996Z,360
2017-11-01T10:16:09.392Z,364
2017-11-01T10:18:10.809Z,344
2017-11-01T10:20:12.222Z,376
2017-11-01T10:22:13.648Z,372
2017-11-01T10:24:15.065Z,364
2017-11-01T10:26:16.484Z,400
2017-11-01T10:28:17.981Z,360
2017-11-01T10:30:19.394Z,336
2017-11-01T10:32:20.807Z,368
2017-11-01T10:34:22.222Z,440
2017-11-01T10:36:23.722Z,380
2017-11-01T10:38:25.135Z,404
2017-11-01T10:40:26.583Z,440
2017-11-01T10:42:28.143Z,456
2017-11-01T10:44:29.578Z,504
2017-11-01T10:46:31.078Z,520
2017-11-01T10:48:32.605Z,472
2017-11-01T10:50:34.095Z,472
2017-11-01T10:52:35.611Z,592
2017-11-01T10:54:37.196Z,688
2017-11-01T10:57:19.564Z,816
2017-11-01T10:59:20.985Z,952
2017-11-01T11:01:22.401Z,860
2017-11-01T11:03:23.828Z,620
2017-11-01T11:05:25.246Z,468
2017-11-01T11:07:26.658Z,484
2017-11-01T11:09:28.069Z,492
2017-11-01T11:11:29.490Z,568
2017-11-01T11:13:30.904Z,648
2017-11-01T11:15:32.422Z,608
2017-11-01T11:17:33.855Z,612
2017-11-01T11:19:35.365Z,584
2017-11-01T11:21:36.818Z,660
2017-11-01T11:23:38.257Z,556
2017-11-01T11:25:39.938Z,524
2017-11-01T11:28:22.730Z,680
2017-11-01T11:30:24.154Z,708
2017-11-01T11:32:25.571Z,480
2017-11-01T11:34:27.038Z,664
2017-11-01T11:36:28.449Z,548
2017-11-01T11:38:29.880Z,432
2017-11-01T11:40:31.307Z,408
2017-11-01T11:42:32.717Z,476
2017-11-01T11:44:34.134Z,532
2017-11-01T11:46:35.550Z,484
2017-11-01T11:48:36.967Z,524
2017-11-01T11:50:38.388Z,472
2017-11-01T11:52:39.808Z,476
2017-11-01T11:54:41.227Z,448
2017-11-01T11:56:42.660Z,428
2017-11-01T11:58:44.082Z,388
2017-11-01T12:00:45.698Z,360
2017-11-01T12:02:47.139Z,332
2017-11-01T12:04:48.570Z,316
2017-11-01T12:06:50.026Z,316
2017-11-01T12:08:51.465Z,376
2017-11-01T12:10:52.939Z,696
2017-11-01T12:12:54.415Z,696
2017-11-01T12:14:55.954Z,724
2017-11-01T12:17:38.453Z,792
2017-11-01T12:19:39.867Z,748
2017-11-01T12:21:41.306Z,672
2017-11-01T12:23:42.700Z,604
2017-11-01T12:25:44.135Z,676
2017-11-01T12:27:45.552Z,796
2017-11-01T12:29:46.973Z,708
2017-11-01T12:32:29.366Z,636
2017-11-01T12:34:30.785Z,624
2017-11-01T12:36:32.195Z,640
2017-11-01T12:38:33.631Z,592
2017-11-01T12:40:35.046Z,668
2017-11-01T12:42:36.462Z,908
2017-11-01T12:44:37.916Z,1228
2017-11-01T12:46:39.394Z,1016
2017-11-01T12:48:40.968Z,1084
2017-11-01T12:50:42.512Z,1108
2017-11-01T12:52:43.966Z,908
2017-11-01T12:54:45.480Z,808
2017-11-01T12:56:46.996Z,1176
2017-11-01T12:58:48.669Z,1160
2017-11-01T13:00:50.744Z,1016
2017-11-01T13:03:33.140Z,948
2017-11-01T13:05:34.566Z,960
2017-11-01T13:07:36.002Z,1020
2017-11-01T13:09:37.420Z,1020
2017-11-01T13:11:39.016Z,1052
2017-11-01T13:13:40.432Z,1036
2017-11-01T13:15:41.851Z,884
2017-11-01T13:17:43.266Z,704
2017-11-01T13:20:25.678Z,592
2017-11-01T13:22:27.088Z,636
2017-11-01T13:24:28.505Z,608
2017-11-01T13:26:29.919Z,616
2017-11-01T13:28:31.340Z,668
2017-11-01T13:30:32.760Z,652
2017-11-01T13:32:34.351Z,636
2017-11-01T13:34:35.763Z,604
2017-11-01T13:36:37.188Z,604
2017-11-01T13:38:38.679Z,628
2017-11-01T13:40:40.320Z,656
2017-11-01T13:42:41.826Z,668
2017-11-01T13:44:43.499Z,748
2017-11-01T13:46:45.347Z,880
2017-11-01T13:48:47.098Z,764
2017-11-01T13:50:48.543Z,824
2017-11-01T13:52:50.072Z,852
2017-11-01T13:54:51.641Z,880
2017-11-01T13:56:53.109Z,772
2017-11-01T13:58:54.687Z,848
2017-11-01T14:00:56.195Z,712
2017-11-01T14:02:57.788Z,684
2017-11-01T14:04:59.294Z,644
2017-11-01T14:07:41.699Z,636
2017-11-01T14:09:43.119Z,572
2017-11-01T14:11:44.534Z,532
2017-11-01T14:13:45.993Z,508
2017-11-01T14:15:47.391Z,508
2017-11-01T14:17:48.821Z,552
2017-11-01T14:19:50.233Z,552
2017-11-01T14:21:51.659Z,548
2017-11-01T14:23:53.066Z,536
2017-11-01T14:25:54.565Z,512
2017-11-01T14:27:55.988Z,500
2017-11-01T14:29:57.460Z,420
2017-11-01T14:31:59.012Z,396
2017-11-01T14:34:00.491Z,392
2017-11-01T14:36:02.047Z,356
2017-11-01T14:38:44.438Z,336
2017-11-01T14:40:45.860Z,320
2017-11-01T14:42:47.280Z,300
2017-11-01T14:44:48.696Z,284
2017-11-01T14:46:50.112Z,264
2017-11-01T14:48:51.530Z,244
2017-11-01T14:50:52.951Z,228
2017-11-01T14:52:54.376Z,208
2017-11-01T14:54:55.784Z,196
2017-11-01T14:56:57.202Z,180
2017-11-01T14:58:58.676Z,164
2017-11-01T15:01:00.093Z,152
2017-11-01T15:03:01.586Z,140
2017-11-01T15:05:03.094Z,128
2017-11-01T15:07:04.766Z,124
2017-11-01T15:09:47.204Z,116
2017-11-01T15:11:48.624Z,116
2017-11-01T15:13:50.041Z,120
2017-11-01T15:15:51.448Z,124
2017-11-01T15:17:53.736Z,124
2017-11-01T15:19:55.153Z,116
2017-11-01T15:21:56.575Z,112
2017-11-01T15:23:58.031Z,104
2017-11-01T15:25:59.416Z,92
2017-11-01T15:28:00.830Z,80
2017-11-01T15:30:02.259Z,76
2017-11-01T15:32:03.708Z,64
2017-11-01T15:34:05.140Z,60
2017-11-01T15:36:06.572Z,56
2017-11-01T15:38:08.015Z,52
2017-11-01T15:40:09.537Z,44
2017-11-01T15:42:51.937Z,32
2017-11-01T15:44:53.355Z,28
2017-11-01T15:46:54.777Z,24
2017-11-01T15:48:56.185Z,20
2017-11-01T15:50:57.718Z,16
2017-11-01T15:52:59.147Z,16
2017-11-01T15:55:00.594Z,8
2017-11-01T15:57:01.985Z,8
2017-11-01T15:59:03.398Z,8
2017-11-01T16:01:04.815Z,4
2017-11-01T16:03:06.225Z,4
2017-11-01T16:05:07.642Z,4
2017-11-01T16:07:09.051Z,4
2017-11-01T16:09:10.464Z,4
2017-11-01T16:11:11.886Z,0
2017-11-01T16:13:54.270Z,0
2017-11-01T16:15:55.710Z,4
2017-11-01T16:17:57.125Z,0
2017-11-01T16:19:58.567Z,0
2017-11-01T16:21:59.972Z,0
2017-11-01T16:24:01.397Z,0
2017-11-01T16:26:02.863Z,0
2017-11-01T16:28:04.264Z,0
2017-11-01T16:30:46.666Z,0
2017-11-01T16:32:48.078Z,0
2017-11-01T16:34:49.493Z,0
2017-11-01T16:36:50.903Z,0
2017-11-01T16:38:52.317Z,0
2017-11-01T16:40:53.729Z,0
2017-11-01T16:42:55.141Z,0
2017-11-01T16:44:56.555Z,0
2017-11-01T16:46:58.021Z,0
2017-11-01T16:48:59.437Z,0
2017-11-01T16:51:00.859Z,0
2017-11-01T16:53:02.275Z,0
2017-11-01T16:55:03.686Z,0
2017-11-01T16:57:05.100Z,0
2017-11-01T16:59:06.556Z,0
2017-11-01T17:01:08.102Z,0
2017-11-01T17:03:09.632Z,0
2017-11-01T17:05:11.146Z,0
2017-11-01T17:07:12.588Z,0
2017-11-01T17:09:14.002Z,0
2017-11-01T17:11:15.419Z,0
2017-11-01T17:13:16.839Z,0
2017-11-01T17:15:18.295Z,0
2017-11-01T17:18:00.732Z,0
2017-11-01T17:20:02.150Z,0
2017-11-01T17:22:03.563Z,0
2017-11-01T17:24:05.030Z,0
2017-11-01T17:26:06.439Z,0
2017-11-01T17:28:07.892Z,0
2017-11-01T17:30:09.336Z,0
2017-11-01T17:32:10.818Z,0
2017-11-01T17:34:12.291Z,0
2017-11-01T17:36:13.704Z,0
2017-11-01T17:38:15.425Z,0
2017-11-01T17:40:17.006Z,0
2017-11-01T17:42:18.689Z,0
2017-11-01T17:44:20.215Z,0
2017-11-01T17:46:21.696Z,0
2017-11-01T17:49:04.130Z,0
2017-11-01T17:51:05.542Z,0
2017-11-01T17:53:06.961Z,0
2017-11-01T17:55:08.366Z,0
2017-11-01T17:57:09.792Z,0
2017-11-01T17:59:11.221Z,0
2017-11-01T18:01:12.740Z,0
2017-11-01T18:03:14.176Z,0
2017-11-01T18:05:56.567Z,0
2017-11-01T18:07:58.051Z,0
2017-11-01T18:09:59.477Z,0
2017-11-01T18:12:00.887Z,0
2017-11-01T18:14:02.303Z,0
2017-11-01T18:16:03.712Z,0
2017-11-01T18:18:05.122Z,0
2017-11-01T18:20:06.534Z,0
2017-11-01T18:22:07.948Z,0
2017-11-01T18:24:09.377Z,0
2017-11-01T18:26:10.873Z,0
2017-11-01T18:28:12.290Z,0
2017-11-01T18:30:13.754Z,0
2017-11-01T18:32:15.169Z,0
2017-11-01T18:34:16.579Z,0
2017-11-01T18:36:18.062Z,0
2017-11-01T18:38:19.479Z,0
2017-11-01T18:40:20.958Z,0
2017-11-01T18:42:22.397Z,0
2017-11-01T18:44:23.959Z,0
2017-11-01T18:46:25.462Z,0
2017-11-01T18:48:27.007Z,0
2017-11-01T18:50:28.536Z,0
2017-11-01T18:53:10.931Z,0
2017-11-01T18:55:12.338Z,0
2017-11-01T18:57:13.755Z,0
2017-11-01T18:59:15.167Z,0
2017-11-01T19:01:16.577Z,0
2017-11-01T19:03:17.990Z,0
2017-11-01T19:05:19.401Z,0
2017-11-01T19:07:21.118Z,0
2017-11-01T19:09:22.555Z,0
2017-11-01T19:11:23.971Z,0
2017-11-01T19:13:25.388Z,0
2017-11-01T19:15:26.860Z,0
2017-11-01T19:17:28.307Z,0
2017-11-01T19:19:29.728Z,0
2017-11-01T19:21:31.171Z,0
2017-11-01T19:24:13.585Z,0
2017-11-01T19:26:14.989Z,0
2017-11-01T19:28:16.412Z,0
2017-11-01T19:30:17.823Z,0
2017-11-01T19:32:19.233Z,0
2017-11-01T19:34:20.647Z,0
2017-11-01T19:36:22.067Z,0
2017-11-01T19:38:23.474Z,0
2017-11-01T19:41:04.887Z,0
2017-11-01T19:43:06.294Z,0
2017-11-01T19:45:07.726Z,0
2017-11-01T19:47:09.194Z,0
2017-11-01T19:49:10.596Z,0
2017-11-01T19:51:12.018Z,0
2017-11-01T19:53:13.707Z,0
2017-11-01T19:55:15.102Z,0
2017-11-01T19:57:16.569Z,0
2017-11-01T19:59:17.967Z,0
2017-11-01T20:01:19.387Z,0
2017-11-01T20:03:20.803Z,0
2017-11-01T20:05:22.232Z,0
2017-11-01T20:07:23.697Z,0
2017-11-01T20:09:25.229Z,0
2017-11-01T20:12:06.627Z,0
2017-11-01T20:14:08.048Z,0
2017-11-01T20:16:09.460Z,0
2017-11-01T20:18:10.881Z,0
2017-11-01T20:20:12.291Z,0
2017-11-01T20:22:13.702Z,0
2017-11-01T20:24:15.115Z,0
2017-11-01T20:26:57.511Z,0
2017-11-01T20:28:58.923Z,0
2017-11-01T20:31:00.336Z,0
2017-11-01T20:33:01.760Z,0
2017-11-01T20:35:03.173Z,0
2017-11-01T20:37:04.609Z,0
2017-11-01T20:39:06.002Z,0
2017-11-01T20:41:07.416Z,0
2017-11-01T20:43:08.829Z,0
2017-11-01T20:45:10.243Z,0
2017-11-01T20:47:11.653Z,0
2017-11-01T20:49:13.158Z,0
2017-11-01T20:51:14.571Z,0
2017-11-01T20:53:15.976Z,0
2017-11-01T20:55:17.389Z,0
2017-11-01T20:57:18.820Z,0
2017-11-01T21:00:01.212Z,0
2017-11-01T21:02:02.628Z,0
2017-11-01T21:04:04.039Z,0
2017-11-01T21:06:05.462Z,0
2017-11-01T21:08:06.907Z,0
2017-11-01T21:10:08.300Z,0
2017-11-01T21:12:09.712Z,0
2017-11-01T21:14:52.442Z,0
2017-11-01T21:16:53.813Z,0
2017-11-01T21:18:55.230Z,0
2017-11-01T21:20:56.767Z,0
2017-11-01T21:22:58.175Z,0
2017-11-01T21:24:59.585Z,0
2017-11-01T21:27:01.005Z,0
2017-11-01T21:29:02.417Z,0
2017-11-01T21:31:03.839Z,0
2017-11-01T21:33:05.315Z,0
2017-11-01T21:35:06.726Z,0
2017-11-01T21:37:08.469Z,0
2017-11-01T21:39:09.892Z,0
2017-11-01T21:41:11.313Z,0
2017-11-01T21:43:12.742Z,0
2017-11-01T21:45:55.125Z,0
2017-11-01T21:47:56.536Z,0
2017-11-01T21:49:57.957Z,0
2017-11-01T21:51:59.478Z,0
2017-11-01T21:54:00.881Z,0
2017-11-01T21:56:02.301Z,0
2017-11-01T21:58:03.723Z,0
2017-11-01T22:00:05.270Z,0
2017-11-01T22:02:47.663Z,0
2017-11-01T22:04:49.097Z,0
2017-11-01T22:06:50.498Z,0
2017-11-01T22:08:51.908Z,0
2017-11-01T22:10:53.388Z,0
2017-11-01T22:12:54.800Z,0
2017-11-01T22:14:56.233Z,0
2017-11-01T22:16:57.670Z,0
2017-11-01T22:18:59.089Z,0
2017-11-01T22:21:00.499Z,0
2017-11-01T22:23:01.934Z,0
2017-11-01T22:25:03.523Z,0
2017-11-01T22:27:05.069Z,0
2017-11-01T22:29:06.535Z,0
2017-11-01T22:31:08.018Z,0
2017-11-01T22:33:50.393Z,0
2017-11-01T22:35:51.807Z,0
2017-11-01T22:37:53.221Z,0
2017-11-01T22:39:54.652Z,0
2017-11-01T22:41:56.064Z,0
2017-11-01T22:43:57.493Z,0
2017-11-01T22:45:58.913Z,0
2017-11-01T22:48:00.330Z,0
2017-11-01T22:50:42.739Z,0
2017-11-01T22:52:44.150Z,0
2017-11-01T22:54:45.570Z,0
2017-11-01T22:56:46.982Z,0
2017-11-01T22:58:48.396Z,0
2017-11-01T23:00:50.370Z,0
2017-11-01T23:02:51.783Z,0
2017-11-01T23:04:53.191Z,0
2017-11-01T23:06:54.672Z,0
2017-11-01T23:08:56.249Z,0
2017-11-01T23:10:57.777Z,0
2017-11-01T23:12:59.357Z,0
2017-11-01T23:15:00.992Z,0
2017-11-01T23:17:02.531Z,0
2017-11-01T23:19:04.099Z,0
2017-11-01T23:21:05.581Z,0
2017-11-01T23:23:07.099Z,0
2017-11-01T23:25:08.610Z,0
2017-11-01T23:27:10.141Z,0
2017-11-01T23:29:11.779Z,0
2017-11-01T23:31:13.355Z,0
2017-11-01T23:33:15.033Z,0
2017-11-01T23:35:16.558Z,0
2017-11-01T23:37:59.014Z,0
2017-11-01T23:40:00.428Z,0
2017-11-01T23:42:01.844Z,0
2017-11-01T23:44:03.257Z,0
2017-11-01T23:46:04.666Z,0
2017-11-01T23:48:06.246Z,0
2017-11-01T23:50:07.660Z,0
2017-11-01T23:52:09.073Z,0
2017-11-01T23:54:10.493Z,0
2017-11-01T23:56:11.974Z,0
2017-11-01T23:58:13.403Z,0
